Terminal Aerodrome Forecast
Issued by NWS

Home | Current Version | Previous Version | Graphics & Text | Print | Product List | Glossary On
Versions: 1 2 3 4 5 6 7 8 9 10 11 12 13 14 15 16 17 18 19 20 21 22
000
FTUS43 KGRB 290543
TAFAUW
TAF
KAUW 290543Z 2906/3006 17008G14KT P6SM SCT010 OVC050
      TEMPO 2906/2909 5SM BR SCT009 BKN015
     FM290900 13003KT 5SM BR SCT005 OVC010
      TEMPO 2909/2913 2SM BR BKN005
     FM291500 06004KT 5SM BR BKN010
     FM291800 18005KT P6SM FEW015 BKN050
     FM292100 19004KT P6SM SCT050=

USA.gov is the U.S. government's official web portal to all federal, state and local government web resources and services.